sensor_id;sensor_type;location;lat;lon;timestamp;P1;durP1;ratioP1;P2;durP2;ratioP2
4674;SDS011;2351;50.812;12.872;2022-08-20T00:00:53;17.73;;;10.07;;
4674;SDS011;2351;50.812;12.872;2022-08-20T00:03:26;14.90;;;9.90;;
4674;SDS011;2351;50.812;12.872;2022-08-20T00:06:01;14.47;;;9.83;;
4674;SDS011;2351;50.812;12.872;2022-08-20T00:08:35;16.67;;;9.93;;
4674;SDS011;2351;50.812;12.872;2022-08-20T00:11:10;18.67;;;11.97;;
4674;SDS011;2351;50.812;12.872;2022-08-20T00:13:44;24.60;;;11.40;;
4674;SDS011;2351;50.812;12.872;2022-08-20T00:16:18;16.50;;;10.83;;
4674;SDS011;2351;50.812;12.872;2022-08-20T00:18:51;14.83;;;9.70;;
4674;SDS011;2351;50.812;12.872;2022-08-20T00:21:23;14.90;;;10.30;;
4674;SDS011;2351;50.812;12.872;2022-08-20T00:23:55;17.30;;;11.10;;
4674;SDS011;2351;50.812;12.872;2022-08-20T00:26:29;20.33;;;12.37;;
4674;SDS011;2351;50.812;12.872;2022-08-20T00:29:01;19.00;;;11.57;;
4674;SDS011;2351;50.812;12.872;2022-08-20T00:31:32;23.73;;;11.97;;
4674;SDS011;2351;50.812;12.872;2022-08-20T00:34:04;24.70;;;12.67;;
4674;SDS011;2351;50.812;12.872;2022-08-20T00:36:35;29.63;;;12.30;;
4674;SDS011;2351;50.812;12.872;2022-08-20T00:39:07;32.80;;;13.33;;
4674;SDS011;2351;50.812;12.872;2022-08-20T00:41:40;20.87;;;12.37;;
4674;SDS011;2351;50.812;12.872;2022-08-20T00:44:13;17.70;;;10.90;;
4674;SDS011;2351;50.812;12.872;2022-08-20T00:46:47;24.50;;;12.77;;
4674;SDS011;2351;50.812;12.872;2022-08-20T00:49:22;23.97;;;13.80;;
4674;SDS011;2351;50.812;12.872;2022-08-20T00:51:56;25.10;;;13.00;;
4674;SDS011;2351;50.812;12.872;2022-08-20T00:54:33;25.60;;;14.50;;
4674;SDS011;2351;50.812;12.872;2022-08-20T00:57:11;28.77;;;15.80;;
4674;SDS011;2351;50.812;12.872;2022-08-20T00:59:52;26.47;;;14.53;;
4674;SDS011;2351;50.812;12.872;2022-08-20T01:02:24;27.90;;;15.43;;
4674;SDS011;2351;50.812;12.872;2022-08-20T01:04:59;24.23;;;14.73;;
4674;SDS011;2351;50.812;12.872;2022-08-20T01:07:31;25.20;;;13.67;;
4674;SDS011;2351;50.812;12.872;2022-08-20T01:10:04;25.70;;;14.07;;
4674;SDS011;2351;50.812;12.872;2022-08-20T01:12:41;29.10;;;15.10;;
4674;SDS011;2351;50.812;12.872;2022-08-20T01:15:16;29.80;;;15.47;;
4674;SDS011;2351;50.812;12.872;2022-08-20T01:17:51;32.47;;;17.50;;
4674;SDS011;2351;50.812;12.872;2022-08-20T01:20:27;36.17;;;16.90;;
4674;SDS011;2351;50.812;12.872;2022-08-20T01:23:03;40.00;;;20.50;;
4674;SDS011;2351;50.812;12.872;2022-08-20T01:26:02;42.97;;;19.27;;
4674;SDS011;2351;50.812;12.872;2022-08-20T01:28:37;39.77;;;19.30;;
4674;SDS011;2351;50.812;12.872;2022-08-20T01:31:13;43.33;;;20.13;;
4674;SDS011;2351;50.812;12.872;2022-08-20T01:33:48;45.83;;;21.43;;
4674;SDS011;2351;50.812;12.872;2022-08-20T01:36:23;46.20;;;20.03;;
4674;SDS011;2351;50.812;12.872;2022-08-20T01:38:59;50.10;;;22.67;;
4674;SDS011;2351;50.812;12.872;2022-08-20T01:41:35;38.10;;;18.97;;
4674;SDS011;2351;50.812;12.872;2022-08-20T01:44:17;39.90;;;20.23;;
4674;SDS011;2351;50.812;12.872;2022-08-20T01:46:50;38.87;;;19.33;;
4674;SDS011;2351;50.812;12.872;2022-08-20T01:49:25;34.27;;;18.97;;
4674;SDS011;2351;50.812;12.872;2022-08-20T01:51:59;40.40;;;18.50;;
4674;SDS011;2351;50.812;12.872;2022-08-20T01:54:37;36.13;;;16.57;;
4674;SDS011;2351;50.812;12.872;2022-08-20T01:57:11;40.70;;;18.63;;
4674;SDS011;2351;50.812;12.872;2022-08-20T01:59:45;28.20;;;16.97;;
4674;SDS011;2351;50.812;12.872;2022-08-20T02:02:20;28.60;;;16.30;;
4674;SDS011;2351;50.812;12.872;2022-08-20T02:04:51;26.37;;;14.60;;
4674;SDS011;2351;50.812;12.872;2022-08-20T02:07:23;26.07;;;13.90;;
4674;SDS011;2351;50.812;12.872;2022-08-20T02:09:54;31.73;;;15.47;;
4674;SDS011;2351;50.812;12.872;2022-08-20T02:12:27;25.30;;;14.90;;
4674;SDS011;2351;50.812;12.872;2022-08-20T02:15:00;28.93;;;16.60;;
4674;SDS011;2351;50.812;12.872;2022-08-20T02:17:32;31.17;;;15.80;;
4674;SDS011;2351;50.812;12.872;2022-08-20T02:20:06;28.57;;;15.37;;
4674;SDS011;2351;50.812;12.872;2022-08-20T02:22:41;33.90;;;16.57;;
4674;SDS011;2351;50.812;12.872;2022-08-20T02:25:17;32.10;;;16.57;;
4674;SDS011;2351;50.812;12.872;2022-08-20T02:27:52;36.53;;;15.77;;
4674;SDS011;2351;50.812;12.872;2022-08-20T02:30:28;34.10;;;16.50;;
4674;SDS011;2351;50.812;12.872;2022-08-20T02:33:03;38.53;;;16.53;;
4674;SDS011;2351;50.812;12.872;2022-08-20T02:35:37;28.43;;;13.97;;
4674;SDS011;2351;50.812;12.872;2022-08-20T02:38:10;29.30;;;14.40;;
4674;SDS011;2351;50.812;12.872;2022-08-20T02:40:43;31.33;;;14.87;;
4674;SDS011;2351;50.812;12.872;2022-08-20T02:43:16;30.47;;;15.37;;
4674;SDS011;2351;50.812;12.872;2022-08-20T02:45:49;27.37;;;15.00;;
4674;SDS011;2351;50.812;12.872;2022-08-20T02:48:20;36.03;;;15.90;;
4674;SDS011;2351;50.812;12.872;2022-08-20T02:50:53;30.27;;;14.43;;
4674;SDS011;2351;50.812;12.872;2022-08-20T02:53:27;32.97;;;15.10;;
4674;SDS011;2351;50.812;12.872;2022-08-20T02:56:01;34.60;;;17.53;;
4674;SDS011;2351;50.812;12.872;2022-08-20T02:58:35;34.47;;;16.27;;
4674;SDS011;2351;50.812;12.872;2022-08-20T03:01:08;28.37;;;14.73;;
4674;SDS011;2351;50.812;12.872;2022-08-20T03:03:41;22.63;;;13.33;;
4674;SDS011;2351;50.812;12.872;2022-08-20T03:06:13;23.67;;;13.80;;
4674;SDS011;2351;50.812;12.872;2022-08-20T03:08:45;24.10;;;13.90;;
4674;SDS011;2351;50.812;12.872;2022-08-20T03:11:17;28.57;;;14.90;;
4674;SDS011;2351;50.812;12.872;2022-08-20T03:13:51;31.37;;;14.90;;
4674;SDS011;2351;50.812;12.872;2022-08-20T03:16:22;28.70;;;14.87;;
4674;SDS011;2351;50.812;12.872;2022-08-20T03:18:54;23.57;;;12.27;;
4674;SDS011;2351;50.812;12.872;2022-08-20T03:21:26;24.50;;;14.33;;
4674;SDS011;2351;50.812;12.872;2022-08-20T03:23:58;28.57;;;14.20;;
4674;SDS011;2351;50.812;12.872;2022-08-20T03:26:29;31.67;;;15.30;;
4674;SDS011;2351;50.812;12.872;2022-08-20T03:29:02;26.03;;;14.00;;
4674;SDS011;2351;50.812;12.872;2022-08-20T03:31:34;29.73;;;15.60;;
4674;SDS011;2351;50.812;12.872;2022-08-20T03:34:06;32.47;;;15.80;;
4674;SDS011;2351;50.812;12.872;2022-08-20T03:36:37;29.77;;;15.30;;
4674;SDS011;2351;50.812;12.872;2022-08-20T03:39:09;36.13;;;16.23;;
4674;SDS011;2351;50.812;12.872;2022-08-20T03:41:42;30.70;;;15.80;;
4674;SDS011;2351;50.812;12.872;2022-08-20T03:44:15;26.20;;;14.63;;
4674;SDS011;2351;50.812;12.872;2022-08-20T03:46:47;30.57;;;15.07;;
4674;SDS011;2351;50.812;12.872;2022-08-20T03:49:19;24.57;;;13.40;;
4674;SDS011;2351;50.812;12.872;2022-08-20T03:51:53;29.40;;;13.87;;
4674;SDS011;2351;50.812;12.872;2022-08-20T03:54:24;27.17;;;14.77;;
4674;SDS011;2351;50.812;12.872;2022-08-20T03:56:56;29.13;;;15.00;;
4674;SDS011;2351;50.812;12.872;2022-08-20T03:59:29;23.23;;;13.00;;
4674;SDS011;2351;50.812;12.872;2022-08-20T04:02:02;24.07;;;13.27;;
4674;SDS011;2351;50.812;12.872;2022-08-20T04:04:34;24.10;;;12.03;;
4674;SDS011;2351;50.812;12.872;2022-08-20T04:07:09;20.63;;;10.33;;
4674;SDS011;2351;50.812;12.872;2022-08-20T04:09:42;14.67;;;7.97;;
4674;SDS011;2351;50.812;12.872;2022-08-20T04:12:13;13.10;;;8.10;;
4674;SDS011;2351;50.812;12.872;2022-08-20T04:14:46;13.53;;;8.17;;
4674;SDS011;2351;50.812;12.872;2022-08-20T04:17:19;11.60;;;6.30;;
4674;SDS011;2351;50.812;12.872;2022-08-20T04:19:50;7.27;;;5.30;;
4674;SDS011;2351;50.812;12.872;2022-08-20T04:22:22;8.87;;;5.87;;
4674;SDS011;2351;50.812;12.872;2022-08-20T04:24:54;6.67;;;5.10;;
4674;SDS011;2351;50.812;12.872;2022-08-20T04:27:25;9.50;;;5.70;;
4674;SDS011;2351;50.812;12.872;2022-08-20T04:29:59;7.60;;;5.03;;
4674;SDS011;2351;50.812;12.872;2022-08-20T04:32:32;8.30;;;4.60;;
4674;SDS011;2351;50.812;12.872;2022-08-20T04:35:06;7.83;;;5.20;;
4674;SDS011;2351;50.812;12.872;2022-08-20T04:37:41;7.03;;;5.30;;
4674;SDS011;2351;50.812;12.872;2022-08-20T04:40:13;7.80;;;5.30;;
4674;SDS011;2351;50.812;12.872;2022-08-20T04:43:04;10.80;;;5.20;;
4674;SDS011;2351;50.812;12.872;2022-08-20T04:45:37;9.87;;;6.07;;
4674;SDS011;2351;50.812;12.872;2022-08-20T04:48:09;8.43;;;5.33;;
4674;SDS011;2351;50.812;12.872;2022-08-20T04:50:41;9.17;;;5.77;;
4674;SDS011;2351;50.812;12.872;2022-08-20T04:53:16;8.80;;;5.77;;
4674;SDS011;2351;50.812;12.872;2022-08-20T04:55:49;10.80;;;5.97;;
4674;SDS011;2351;50.812;12.872;2022-08-20T04:58:23;9.73;;;7.47;;
4674;SDS011;2351;50.812;12.872;2022-08-20T05:00:59;11.77;;;6.50;;
4674;SDS011;2351;50.812;12.872;2022-08-20T05:03:33;11.73;;;6.53;;
4674;SDS011;2351;50.812;12.872;2022-08-20T05:06:05;10.33;;;7.27;;
4674;SDS011;2351;50.812;12.872;2022-08-20T05:08:38;10.17;;;6.73;;
4674;SDS011;2351;50.812;12.872;2022-08-20T05:11:11;11.00;;;6.57;;
4674;SDS011;2351;50.812;12.872;2022-08-20T05:13:44;9.40;;;6.13;;
4674;SDS011;2351;50.812;12.872;2022-08-20T05:16:17;12.43;;;7.40;;
4674;SDS011;2351;50.812;12.872;2022-08-20T05:18:48;11.80;;;6.97;;
4674;SDS011;2351;50.812;12.872;2022-08-20T05:21:21;10.60;;;6.50;;
4674;SDS011;2351;50.812;12.872;2022-08-20T05:23:52;8.47;;;6.20;;
4674;SDS011;2351;50.812;12.872;2022-08-20T05:26:24;7.17;;;4.93;;
4674;SDS011;2351;50.812;12.872;2022-08-20T05:28:56;7.80;;;5.87;;
4674;SDS011;2351;50.812;12.872;2022-08-20T05:31:29;10.10;;;5.53;;
4674;SDS011;2351;50.812;12.872;2022-08-20T05:34:02;9.93;;;6.03;;
4674;SDS011;2351;50.812;12.872;2022-08-20T05:36:38;7.60;;;4.43;;
4674;SDS011;2351;50.812;12.872;2022-08-20T05:39:12;6.53;;;5.03;;
4674;SDS011;2351;50.812;12.872;2022-08-20T05:41:44;6.80;;;4.43;;
4674;SDS011;2351;50.812;12.872;2022-08-20T05:44:18;7.60;;;4.33;;
4674;SDS011;2351;50.812;12.872;2022-08-20T05:46:51;6.20;;;4.47;;
4674;SDS011;2351;50.812;12.872;2022-08-20T05:49:23;8.50;;;5.20;;
4674;SDS011;2351;50.812;12.872;2022-08-20T05:51:54;7.37;;;4.50;;
4674;SDS011;2351;50.812;12.872;2022-08-20T05:54:26;6.63;;;4.63;;
4674;SDS011;2351;50.812;12.872;2022-08-20T05:56:58;4.83;;;4.10;;
4674;SDS011;2351;50.812;12.872;2022-08-20T05:59:29;8.43;;;5.10;;
4674;SDS011;2351;50.812;12.872;2022-08-20T06:02:04;12.67;;;4.70;;
4674;SDS011;2351;50.812;12.872;2022-08-20T06:04:57;6.37;;;4.33;;
4674;SDS011;2351;50.812;12.872;2022-08-20T06:07:27;8.97;;;5.77;;
4674;SDS011;2351;50.812;12.872;2022-08-20T06:09:59;8.00;;;4.90;;
4674;SDS011;2351;50.812;12.872;2022-08-20T06:12:31;8.60;;;5.70;;
4674;SDS011;2351;50.812;12.872;2022-08-20T06:15:03;9.23;;;5.87;;
4674;SDS011;2351;50.812;12.872;2022-08-20T06:17:37;8.60;;;5.33;;
4674;SDS011;2351;50.812;12.872;2022-08-20T06:20:09;12.70;;;6.63;;
4674;SDS011;2351;50.812;12.872;2022-08-20T06:22:41;10.73;;;6.47;;
4674;SDS011;2351;50.812;12.872;2022-08-20T06:25:14;8.73;;;7.07;;
4674;SDS011;2351;50.812;12.872;2022-08-20T06:27:46;11.17;;;7.00;;
4674;SDS011;2351;50.812;12.872;2022-08-20T06:30:18;15.17;;;8.70;;
4674;SDS011;2351;50.812;12.872;2022-08-20T06:32:50;14.37;;;8.77;;
4674;SDS011;2351;50.812;12.872;2022-08-20T06:35:22;17.80;;;8.77;;
4674;SDS011;2351;50.812;12.872;2022-08-20T06:37:54;14.33;;;9.10;;
4674;SDS011;2351;50.812;12.872;2022-08-20T06:40:29;17.30;;;9.20;;
4674;SDS011;2351;50.812;12.872;2022-08-20T06:43:00;13.10;;;7.00;;
4674;SDS011;2351;50.812;12.872;2022-08-20T06:45:32;11.10;;;6.70;;
4674;SDS011;2351;50.812;12.872;2022-08-20T06:48:07;12.53;;;7.63;;
4674;SDS011;2351;50.812;12.872;2022-08-20T06:50:41;9.73;;;6.60;;
4674;SDS011;2351;50.812;12.872;2022-08-20T06:53:16;16.67;;;6.23;;
4674;SDS011;2351;50.812;12.872;2022-08-20T06:55:50;15.43;;;6.70;;
4674;SDS011;2351;50.812;12.872;2022-08-20T06:58:24;10.57;;;6.63;;
4674;SDS011;2351;50.812;12.872;2022-08-20T07:00:56;9.80;;;7.40;;
4674;SDS011;2351;50.812;12.872;2022-08-20T07:03:30;10.90;;;6.93;;
4674;SDS011;2351;50.812;12.872;2022-08-20T07:06:02;10.50;;;5.80;;
4674;SDS011;2351;50.812;12.872;2022-08-20T07:08:34;13.43;;;7.07;;
4674;SDS011;2351;50.812;12.872;2022-08-20T07:11:06;7.53;;;5.83;;
4674;SDS011;2351;50.812;12.872;2022-08-20T07:13:37;8.70;;;6.10;;
4674;SDS011;2351;50.812;12.872;2022-08-20T07:16:10;11.37;;;7.83;;
4674;SDS011;2351;50.812;12.872;2022-08-20T07:18:43;11.87;;;6.70;;
4674;SDS011;2351;50.812;12.872;2022-08-20T07:21:15;13.63;;;6.30;;
4674;SDS011;2351;50.812;12.872;2022-08-20T07:23:47;12.53;;;6.83;;
4674;SDS011;2351;50.812;12.872;2022-08-20T07:26:19;13.87;;;6.20;;
4674;SDS011;2351;50.812;12.872;2022-08-20T07:28:50;9.57;;;6.37;;
4674;SDS011;2351;50.812;12.872;2022-08-20T07:31:23;12.27;;;7.00;;
4674;SDS011;2351;50.812;12.872;2022-08-20T07:34:13;7.80;;;6.27;;
4674;SDS011;2351;50.812;12.872;2022-08-20T07:36:45;8.67;;;6.57;;
4674;SDS011;2351;50.812;12.872;2022-08-20T07:39:19;11.23;;;6.10;;
4674;SDS011;2351;50.812;12.872;2022-08-20T07:41:50;10.57;;;7.63;;
4674;SDS011;2351;50.812;12.872;2022-08-20T07:44:32;10.03;;;6.47;;
4674;SDS011;2351;50.812;12.872;2022-08-20T07:47:03;11.77;;;7.53;;
4674;SDS011;2351;50.812;12.872;2022-08-20T07:49:37;11.30;;;6.70;;
4674;SDS011;2351;50.812;12.872;2022-08-20T07:52:09;10.63;;;6.83;;
4674;SDS011;2351;50.812;12.872;2022-08-20T07:54:42;12.27;;;6.87;;
4674;SDS011;2351;50.812;12.872;2022-08-20T07:57:13;10.97;;;7.13;;
4674;SDS011;2351;50.812;12.872;2022-08-20T07:59:46;11.40;;;7.70;;
4674;SDS011;2351;50.812;12.872;2022-08-20T08:02:18;11.80;;;7.20;;
4674;SDS011;2351;50.812;12.872;2022-08-20T08:04:51;13.23;;;6.90;;
4674;SDS011;2351;50.812;12.872;2022-08-20T08:07:23;14.17;;;6.73;;
4674;SDS011;2351;50.812;12.872;2022-08-20T08:09:56;11.80;;;7.20;;
4674;SDS011;2351;50.812;12.872;2022-08-20T08:12:31;8.70;;;6.30;;
4674;SDS011;2351;50.812;12.872;2022-08-20T08:15:06;11.77;;;7.50;;
4674;SDS011;2351;50.812;12.872;2022-08-20T08:17:41;10.23;;;7.03;;
4674;SDS011;2351;50.812;12.872;2022-08-20T08:20:15;12.03;;;8.23;;
4674;SDS011;2351;50.812;12.872;2022-08-20T08:22:48;9.37;;;6.77;;
4674;SDS011;2351;50.812;12.872;2022-08-20T08:25:21;11.30;;;7.20;;
4674;SDS011;2351;50.812;12.872;2022-08-20T08:27:53;10.43;;;6.70;;
4674;SDS011;2351;50.812;12.872;2022-08-20T08:30:24;10.57;;;7.30;;
4674;SDS011;2351;50.812;12.872;2022-08-20T08:32:57;10.13;;;7.20;;
4674;SDS011;2351;50.812;12.872;2022-08-20T08:35:48;11.77;;;7.17;;
4674;SDS011;2351;50.812;12.872;2022-08-20T08:38:20;10.83;;;7.20;;
4674;SDS011;2351;50.812;12.872;2022-08-20T08:40:54;9.57;;;6.50;;
4674;SDS011;2351;50.812;12.872;2022-08-20T08:43:27;13.23;;;7.70;;
4674;SDS011;2351;50.812;12.872;2022-08-20T08:46:02;13.60;;;7.53;;
4674;SDS011;2351;50.812;12.872;2022-08-20T08:48:36;11.90;;;6.93;;
4674;SDS011;2351;50.812;12.872;2022-08-20T08:51:14;12.03;;;7.53;;
4674;SDS011;2351;50.812;12.872;2022-08-20T08:53:49;9.63;;;6.73;;
4674;SDS011;2351;50.812;12.872;2022-08-20T08:56:26;9.80;;;6.77;;
4674;SDS011;2351;50.812;12.872;2022-08-20T08:59:00;10.47;;;7.27;;
4674;SDS011;2351;50.812;12.872;2022-08-20T09:01:35;8.73;;;6.13;;
4674;SDS011;2351;50.812;12.872;2022-08-20T09:04:12;11.60;;;6.60;;
4674;SDS011;2351;50.812;12.872;2022-08-20T09:06:46;9.10;;;5.37;;
4674;SDS011;2351;50.812;12.872;2022-08-20T09:09:19;9.70;;;6.33;;
4674;SDS011;2351;50.812;12.872;2022-08-20T09:11:56;6.77;;;5.13;;
4674;SDS011;2351;50.812;12.872;2022-08-20T09:14:35;7.90;;;5.43;;
4674;SDS011;2351;50.812;12.872;2022-08-20T09:17:07;6.77;;;4.47;;
4674;SDS011;2351;50.812;12.872;2022-08-20T09:19:38;17.30;;;7.70;;
4674;SDS011;2351;50.812;12.872;2022-08-20T09:22:12;12.70;;;7.00;;
4674;SDS011;2351;50.812;12.872;2022-08-20T09:24:46;11.97;;;7.03;;
4674;SDS011;2351;50.812;12.872;2022-08-20T09:27:17;7.50;;;6.27;;
4674;SDS011;2351;50.812;12.872;2022-08-20T09:29:49;11.33;;;5.93;;
4674;SDS011;2351;50.812;12.872;2022-08-20T09:32:22;8.83;;;5.80;;
4674;SDS011;2351;50.812;12.872;2022-08-20T09:34:54;20.23;;;6.97;;
4674;SDS011;2351;50.812;12.872;2022-08-20T09:37:29;6.77;;;5.40;;
4674;SDS011;2351;50.812;12.872;2022-08-20T09:40:02;8.43;;;5.83;;
4674;SDS011;2351;50.812;12.872;2022-08-20T09:42:36;8.63;;;5.37;;
4674;SDS011;2351;50.812;12.872;2022-08-20T09:45:09;7.23;;;5.80;;
4674;SDS011;2351;50.812;12.872;2022-08-20T09:47:42;8.07;;;4.87;;
4674;SDS011;2351;50.812;12.872;2022-08-20T09:50:14;7.73;;;5.90;;
4674;SDS011;2351;50.812;12.872;2022-08-20T09:52:47;9.47;;;5.87;;
4674;SDS011;2351;50.812;12.872;2022-08-20T09:55:24;8.70;;;5.73;;
4674;SDS011;2351;50.812;12.872;2022-08-20T09:58:02;8.67;;;5.17;;
4674;SDS011;2351;50.812;12.872;2022-08-20T10:00:36;8.20;;;5.63;;
4674;SDS011;2351;50.812;12.872;2022-08-20T10:03:07;6.10;;;4.50;;
4674;SDS011;2351;50.812;12.872;2022-08-20T10:05:39;7.10;;;5.40;;
4674;SDS011;2351;50.812;12.872;2022-08-20T10:08:12;9.70;;;5.33;;
4674;SDS011;2351;50.812;12.872;2022-08-20T10:10:43;12.00;;;4.37;;
4674;SDS011;2351;50.812;12.872;2022-08-20T10:13:15;10.43;;;5.17;;
4674;SDS011;2351;50.812;12.872;2022-08-20T10:15:47;5.63;;;4.80;;
4674;SDS011;2351;50.812;12.872;2022-08-20T10:18:18;5.83;;;5.00;;
4674;SDS011;2351;50.812;12.872;2022-08-20T10:20:50;8.50;;;6.10;;
4674;SDS011;2351;50.812;12.872;2022-08-20T10:23:23;9.70;;;5.87;;
4674;SDS011;2351;50.812;12.872;2022-08-20T10:25:54;8.03;;;5.20;;
4674;SDS011;2351;50.812;12.872;2022-08-20T10:28:26;5.40;;;4.67;;
4674;SDS011;2351;50.812;12.872;2022-08-20T10:30:57;7.30;;;5.70;;
4674;SDS011;2351;50.812;12.872;2022-08-20T10:33:29;6.07;;;4.70;;
4674;SDS011;2351;50.812;12.872;2022-08-20T10:36:04;5.30;;;4.40;;
4674;SDS011;2351;50.812;12.872;2022-08-20T10:38:38;6.60;;;4.67;;
4674;SDS011;2351;50.812;12.872;2022-08-20T10:41:10;6.63;;;4.50;;
4674;SDS011;2351;50.812;12.872;2022-08-20T10:43:41;4.57;;;3.60;;
4674;SDS011;2351;50.812;12.872;2022-08-20T10:46:13;5.80;;;4.70;;
4674;SDS011;2351;50.812;12.872;2022-08-20T10:48:45;6.60;;;5.47;;
4674;SDS011;2351;50.812;12.872;2022-08-20T10:51:16;7.80;;;5.27;;
4674;SDS011;2351;50.812;12.872;2022-08-20T10:53:49;8.23;;;5.30;;
4674;SDS011;2351;50.812;12.872;2022-08-20T10:56:21;7.83;;;5.20;;
4674;SDS011;2351;50.812;12.872;2022-08-20T10:58:52;12.87;;;5.80;;
4674;SDS011;2351;50.812;12.872;2022-08-20T11:01:24;8.27;;;5.00;;
4674;SDS011;2351;50.812;12.872;2022-08-20T11:03:56;7.87;;;4.93;;
4674;SDS011;2351;50.812;12.872;2022-08-20T11:06:28;7.60;;;4.23;;
4674;SDS011;2351;50.812;12.872;2022-08-20T11:09:01;6.03;;;4.40;;
4674;SDS011;2351;50.812;12.872;2022-08-20T11:11:33;6.50;;;4.60;;
4674;SDS011;2351;50.812;12.872;2022-08-20T11:14:05;5.87;;;4.57;;
4674;SDS011;2351;50.812;12.872;2022-08-20T11:16:36;11.73;;;5.20;;
4674;SDS011;2351;50.812;12.872;2022-08-20T11:19:08;7.00;;;4.70;;
4674;SDS011;2351;50.812;12.872;2022-08-20T11:21:39;7.17;;;5.23;;
4674;SDS011;2351;50.812;12.872;2022-08-20T11:24:12;8.67;;;5.53;;
4674;SDS011;2351;50.812;12.872;2022-08-20T11:26:44;7.60;;;4.97;;
4674;SDS011;2351;50.812;12.872;2022-08-20T11:29:17;5.73;;;4.60;;
4674;SDS011;2351;50.812;12.872;2022-08-20T11:31:51;6.87;;;4.43;;
4674;SDS011;2351;50.812;12.872;2022-08-20T11:34:23;5.83;;;5.13;;
4674;SDS011;2351;50.812;12.872;2022-08-20T11:36:54;5.37;;;4.33;;
4674;SDS011;2351;50.812;12.872;2022-08-20T11:39:29;8.27;;;5.07;;
4674;SDS011;2351;50.812;12.872;2022-08-20T11:42:01;6.87;;;4.60;;
4674;SDS011;2351;50.812;12.872;2022-08-20T11:44:32;5.70;;;4.70;;
4674;SDS011;2351;50.812;12.872;2022-08-20T11:47:04;6.00;;;4.67;;
4674;SDS011;2351;50.812;12.872;2022-08-20T11:49:37;5.37;;;4.47;;
4674;SDS011;2351;50.812;12.872;2022-08-20T11:52:08;5.33;;;4.37;;
4674;SDS011;2351;50.812;12.872;2022-08-20T11:54:41;8.43;;;4.50;;
4674;SDS011;2351;50.812;12.872;2022-08-20T11:57:17;5.70;;;3.87;;
4674;SDS011;2351;50.812;12.872;2022-08-20T11:59:51;8.63;;;4.60;;
4674;SDS011;2351;50.812;12.872;2022-08-20T12:02:23;10.00;;;4.07;;
4674;SDS011;2351;50.812;12.872;2022-08-20T12:04:55;7.43;;;4.17;;
4674;SDS011;2351;50.812;12.872;2022-08-20T12:07:27;5.20;;;4.20;;
4674;SDS011;2351;50.812;12.872;2022-08-20T12:10:00;5.10;;;4.07;;
4674;SDS011;2351;50.812;12.872;2022-08-20T12:12:32;4.80;;;3.60;;
4674;SDS011;2351;50.812;12.872;2022-08-20T12:15:04;4.83;;;4.03;;
4674;SDS011;2351;50.812;12.872;2022-08-20T12:17:38;5.17;;;4.20;;
4674;SDS011;2351;50.812;12.872;2022-08-20T12:20:11;4.03;;;3.63;;
4674;SDS011;2351;50.812;12.872;2022-08-20T12:22:44;5.50;;;4.13;;
4674;SDS011;2351;50.812;12.872;2022-08-20T12:25:17;9.23;;;4.13;;
4674;SDS011;2351;50.812;12.872;2022-08-20T12:27:48;6.40;;;4.17;;
4674;SDS011;2351;50.812;12.872;2022-08-20T12:30:21;6.07;;;4.33;;
4674;SDS011;2351;50.812;12.872;2022-08-20T12:32:54;5.10;;;4.27;;
4674;SDS011;2351;50.812;12.872;2022-08-20T12:35:25;4.20;;;3.80;;
4674;SDS011;2351;50.812;12.872;2022-08-20T12:38:00;6.23;;;4.17;;
4674;SDS011;2351;50.812;12.872;2022-08-20T12:40:34;5.50;;;4.70;;
4674;SDS011;2351;50.812;12.872;2022-08-20T12:43:06;6.60;;;4.37;;
4674;SDS011;2351;50.812;12.872;2022-08-20T12:45:37;5.50;;;4.60;;
4674;SDS011;2351;50.812;12.872;2022-08-20T12:48:10;6.30;;;4.47;;
4674;SDS011;2351;50.812;12.872;2022-08-20T12:50:42;5.83;;;4.13;;
4674;SDS011;2351;50.812;12.872;2022-08-20T12:53:15;8.63;;;5.10;;
4674;SDS011;2351;50.812;12.872;2022-08-20T12:55:48;7.50;;;5.50;;
4674;SDS011;2351;50.812;12.872;2022-08-20T12:58:20;5.67;;;4.10;;
4674;SDS011;2351;50.812;12.872;2022-08-20T13:00:52;6.10;;;4.67;;
4674;SDS011;2351;50.812;12.872;2022-08-20T13:03:23;6.90;;;5.17;;
4674;SDS011;2351;50.812;12.872;2022-08-20T13:05:55;5.77;;;4.23;;
4674;SDS011;2351;50.812;12.872;2022-08-20T13:08:26;4.90;;;4.07;;
4674;SDS011;2351;50.812;12.872;2022-08-20T13:11:00;5.47;;;4.10;;
4674;SDS011;2351;50.812;12.872;2022-08-20T13:13:31;7.23;;;4.40;;
4674;SDS011;2351;50.812;12.872;2022-08-20T13:16:03;5.50;;;4.70;;
4674;SDS011;2351;50.812;12.872;2022-08-20T13:18:35;5.53;;;4.10;;
4674;SDS011;2351;50.812;12.872;2022-08-20T13:21:06;6.03;;;3.73;;
4674;SDS011;2351;50.812;12.872;2022-08-20T13:23:38;6.73;;;4.30;;
4674;SDS011;2351;50.812;12.872;2022-08-20T13:26:11;4.87;;;3.63;;
4674;SDS011;2351;50.812;12.872;2022-08-20T13:28:42;10.23;;;4.10;;
4674;SDS011;2351;50.812;12.872;2022-08-20T13:31:14;5.53;;;4.77;;
4674;SDS011;2351;50.812;12.872;2022-08-20T13:33:46;5.70;;;4.47;;
4674;SDS011;2351;50.812;12.872;2022-08-20T13:36:17;6.67;;;5.27;;
4674;SDS011;2351;50.812;12.872;2022-08-20T13:38:49;5.07;;;4.00;;
4674;SDS011;2351;50.812;12.872;2022-08-20T13:41:22;7.33;;;5.00;;
4674;SDS011;2351;50.812;12.872;2022-08-20T13:43:53;6.87;;;3.73;;
4674;SDS011;2351;50.812;12.872;2022-08-20T13:46:25;5.93;;;4.17;;
4674;SDS011;2351;50.812;12.872;2022-08-20T13:48:57;6.30;;;4.40;;
4674;SDS011;2351;50.812;12.872;2022-08-20T13:51:28;5.60;;;4.60;;
4674;SDS011;2351;50.812;12.872;2022-08-20T13:54:03;5.80;;;4.17;;
4674;SDS011;2351;50.812;12.872;2022-08-20T13:56:36;6.40;;;4.70;;
4674;SDS011;2351;50.812;12.872;2022-08-20T13:59:07;5.27;;;4.40;;
4674;SDS011;2351;50.812;12.872;2022-08-20T14:01:39;7.07;;;4.80;;
4674;SDS011;2351;50.812;12.872;2022-08-20T14:04:10;12.63;;;5.30;;
4674;SDS011;2351;50.812;12.872;2022-08-20T14:06:42;5.30;;;4.00;;
4674;SDS011;2351;50.812;12.872;2022-08-20T14:09:14;6.63;;;4.23;;
4674;SDS011;2351;50.812;12.872;2022-08-20T14:11:47;6.23;;;3.90;;
4674;SDS011;2351;50.812;12.872;2022-08-20T14:14:18;6.53;;;4.33;;
4674;SDS011;2351;50.812;12.872;2022-08-20T14:16:53;6.00;;;4.47;;
4674;SDS011;2351;50.812;12.872;2022-08-20T14:19:25;7.03;;;4.73;;
4674;SDS011;2351;50.812;12.872;2022-08-20T14:21:56;7.07;;;4.60;;
4674;SDS011;2351;50.812;12.872;2022-08-20T14:24:28;5.67;;;4.17;;
4674;SDS011;2351;50.812;12.872;2022-08-20T14:27:02;5.57;;;4.53;;
4674;SDS011;2351;50.812;12.872;2022-08-20T14:29:35;5.53;;;4.70;;
4674;SDS011;2351;50.812;12.872;2022-08-20T14:32:07;4.63;;;4.13;;
4674;SDS011;2351;50.812;12.872;2022-08-20T14:34:40;6.80;;;4.93;;
4674;SDS011;2351;50.812;12.872;2022-08-20T14:37:12;6.00;;;4.40;;
4674;SDS011;2351;50.812;12.872;2022-08-20T14:39:47;7.43;;;5.23;;
4674;SDS011;2351;50.812;12.872;2022-08-20T14:42:22;7.90;;;4.80;;
4674;SDS011;2351;50.812;12.872;2022-08-20T14:44:56;7.00;;;4.73;;
4674;SDS011;2351;50.812;12.872;2022-08-20T14:47:29;7.03;;;5.00;;
4674;SDS011;2351;50.812;12.872;2022-08-20T14:50:04;7.13;;;4.77;;
4674;SDS011;2351;50.812;12.872;2022-08-20T14:52:38;10.33;;;4.57;;
4674;SDS011;2351;50.812;12.872;2022-08-20T14:55:11;6.50;;;5.43;;
4674;SDS011;2351;50.812;12.872;2022-08-20T14:57:46;13.07;;;5.40;;
4674;SDS011;2351;50.812;12.872;2022-08-20T15:00:19;5.70;;;4.60;;
4674;SDS011;2351;50.812;12.872;2022-08-20T15:02:53;6.63;;;4.77;;
4674;SDS011;2351;50.812;12.872;2022-08-20T15:05:25;15.33;;;6.40;;
4674;SDS011;2351;50.812;12.872;2022-08-20T15:07:57;5.43;;;4.50;;
4674;SDS011;2351;50.812;12.872;2022-08-20T15:10:30;8.00;;;5.60;;
4674;SDS011;2351;50.812;12.872;2022-08-20T15:13:04;6.10;;;4.73;;
4674;SDS011;2351;50.812;12.872;2022-08-20T15:15:35;9.63;;;5.60;;
4674;SDS011;2351;50.812;12.872;2022-08-20T15:18:08;7.67;;;5.63;;
4674;SDS011;2351;50.812;12.872;2022-08-20T15:20:40;7.30;;;5.73;;
4674;SDS011;2351;50.812;12.872;2022-08-20T15:23:11;11.53;;;7.07;;
4674;SDS011;2351;50.812;12.872;2022-08-20T15:25:43;12.57;;;7.67;;